Time;durP1;ratioP1;P1;durP2;ratioP2;P2;SDS_P1;SDS_P2;PMS_P1;PMS_P2;Temp;Humidity;BMP_temperature;BMP_pressure;BME280_temperature;BME280_humidity;BME280_pressure;Samples;Min_cycle;Max_cycle;Signal;HPM_P1;HPM_P2
2023/07/15 00:00:41;;;;;;;6.80;3.10;;;18.60;99.90;;;;;;5072017;28;20426;-63
2023/07/15 00:03:11;;;;;;;7.57;3.38;;;18.70;99.90;;;;;;5070658;28;20066;-62
2023/07/15 00:05:39;;;;;;;6.20;3.35;;;18.70;99.90;;;;;;5070940;28;20039;-64
2023/07/15 00:08:06;;;;;;;8.82;3.22;;;18.70;99.90;;;;;;5071417;28;20139;-63
2023/07/15 00:10:37;;;;;;;7.35;3.30;;;18.80;99.90;;;;;;5071330;28;20040;-63
2023/07/15 00:13:03;;;;;;;12.48;3.13;;;19.00;99.90;;;;;;5071791;28;20336;-62
2023/07/15 00:15:29;;;;;;;6.25;3.50;;;18.70;99.90;;;;;;5070731;28;20040;-63
2023/07/15 00:17:54;;;;;;;5.78;3.20;;;19.00;99.90;;;;;;5071539;28;20054;-63
2023/07/15 00:20:21;;;;;;;10.75;3.60;;;18.90;99.90;;;;;;5070291;28;20032;-63
2023/07/15 00:22:48;;;;;;;7.85;3.10;;;18.90;99.90;;;;;;5070546;28;20052;-63
2023/07/15 00:25:16;;;;;;;6.50;3.38;;;18.90;99.90;;;;;;5071329;28;20101;-62
2023/07/15 00:27:43;;;;;;;7.53;3.13;;;18.90;99.90;;;;;;5071660;28;20044;-63
2023/07/15 00:30:14;;;;;;;6.65;3.13;;;19.10;99.90;;;;;;5071032;28;20610;-63
2023/07/15 00:32:52;;;;;;;6.63;3.15;;;17.20;99.90;;;;;;5072338;28;20052;-63
2023/07/15 00:35:20;;;;;;;7.30;2.92;;;19.00;99.90;;;;;;5049256;28;20888;-62
2023/07/15 00:37:47;;;;;;;7.10;3.05;;;19.00;99.90;;;;;;5073552;28;20040;-62
2023/07/15 00:40:14;;;;;;;9.82;3.47;;;19.10;99.90;;;;;;5077172;28;20068;-63
2023/07/15 00:43:17;;;;;;;6.35;3.13;;;19.00;99.90;;;;;;5077201;28;20052;-63
2023/07/15 00:45:43;;;;;;;7.43;3.15;;;19.20;99.90;;;;;;5075077;28;20040;-63
2023/07/15 00:48:17;;;;;;;8.13;3.13;;;19.10;99.90;;;;;;5075405;28;20048;-63
2023/07/15 00:50:43;;;;;;;7.30;2.95;;;19.00;99.90;;;;;;5075057;28;20043;-62
2023/07/15 00:53:10;;;;;;;8.07;3.05;;;19.00;99.90;;;;;;5075689;28;20416;-63
2023/07/15 00:55:36;;;;;;;8.23;3.25;;;19.10;99.90;;;;;;5076034;28;20071;-63
2023/07/15 00:58:03;;;;;;;6.57;2.90;;;19.10;99.90;;;;;;5074578;28;20047;-63
2023/07/15 01:00:30;;;;;;;7.72;2.95;;;19.20;99.90;;;;;;5073879;28;20058;-63
2023/07/15 01:02:56;;;;;;;9.82;3.00;;;19.10;99.90;;;;;;5073353;28;20558;-63
2023/07/15 01:05:22;;;;;;;7.13;2.95;;;19.30;99.90;;;;;;5074994;28;20060;-63
2023/07/15 01:07:47;;;;;;;9.27;3.45;;;19.10;99.90;;;;;;5074254;28;20063;-63
2023/07/15 01:10:13;;;;;;;5.80;2.70;;;19.20;99.90;;;;;;5073861;28;20570;-62
2023/07/15 01:12:39;;;;;;;5.25;2.85;;;19.20;99.90;;;;;;5075449;28;20694;-64
2023/07/15 01:15:06;;;;;;;6.03;2.70;;;19.10;99.90;;;;;;5056949;28;20560;-62
2023/07/15 01:17:32;;;;;;;6.13;3.13;;;19.20;99.90;;;;;;5073804;28;20448;-63
2023/07/15 01:19:58;;;;;;;6.78;2.97;;;19.20;99.90;;;;;;5073506;28;20124;-62
2023/07/15 01:22:25;;;;;;;8.02;3.00;;;19.30;99.90;;;;;;5074990;28;20664;-64
2023/07/15 01:24:51;;;;;;;7.72;3.17;;;19.10;99.90;;;;;;5073865;28;20109;-62
2023/07/15 01:27:17;;;;;;;7.03;3.03;;;19.10;99.90;;;;;;5073402;28;20044;-63
2023/07/15 01:29:43;;;;;;;6.28;2.72;;;19.30;99.90;;;;;;5073955;28;22201;-62
2023/07/15 01:32:09;;;;;;;7.68;2.83;;;19.10;99.90;;;;;;5074429;28;20059;-62
2023/07/15 01:34:36;;;;;;;5.47;2.65;;;19.10;99.90;;;;;;5054658;28;20291;-62
2023/07/15 01:37:03;;;;;;;6.47;2.90;;;19.10;99.90;;;;;;5072896;28;20295;-62
2023/07/15 01:39:29;;;;;;;5.90;2.50;;;19.40;99.90;;;;;;5073780;28;20051;-63
2023/07/15 01:41:55;;;;;;;8.18;2.83;;;19.40;99.90;;;;;;5076007;28;20036;-63
2023/07/15 01:44:23;;;;;;;6.70;2.53;;;19.40;99.90;;;;;;5072518;28;20039;-63
2023/07/15 01:46:49;;;;;;;4.43;2.35;;;19.40;99.90;;;;;;5072516;28;20526;-63
2023/07/15 01:49:15;;;;;;;8.73;2.50;;;19.40;99.90;;;;;;5071952;28;20067;-63
2023/07/15 01:51:41;;;;;;;6.57;2.78;;;19.50;99.90;;;;;;5074148;28;20497;-63
2023/07/15 01:54:06;;;;;;;4.72;2.42;;;19.40;99.90;;;;;;5073893;28;20075;-64
2023/07/15 01:56:32;;;;;;;8.43;2.80;;;19.70;99.90;;;;;;5073487;28;20447;-62
2023/07/15 01:58:58;;;;;;;7.63;2.42;;;19.40;99.90;;;;;;5073791;28;20052;-63
2023/07/15 02:01:24;;;;;;;6.50;2.53;;;19.40;99.90;;;;;;5074380;28;20395;-63
2023/07/15 02:03:50;;;;;;;6.50;2.45;;;19.60;99.90;;;;;;5073370;28;20036;-63
2023/07/15 02:06:15;;;;;;;5.18;2.38;;;19.60;99.90;;;;;;5073337;28;20036;-62
2023/07/15 02:08:41;;;;;;;5.72;2.63;;;19.60;99.90;;;;;;5073231;28;20039;-63
2023/07/15 02:11:07;;;;;;;5.47;2.50;;;19.80;99.90;;;;;;5074326;28;20346;-63
2023/07/15 02:13:33;;;;;;;11.85;2.72;;;19.60;99.90;;;;;;5056711;28;20088;-63
2023/07/15 02:15:58;;;;;;;6.00;2.45;;;19.70;99.90;;;;;;5072974;28;20055;-63
2023/07/15 02:18:25;;;;;;;6.47;2.70;;;19.50;99.90;;;;;;5072744;28;20036;-64
2023/07/15 02:20:51;;;;;;;6.45;2.58;;;19.40;99.90;;;;;;5072752;28;20145;-64
2023/07/15 02:23:17;;;;;;;5.18;2.47;;;19.40;99.90;;;;;;5071286;28;20048;-63
2023/07/15 02:25:43;;;;;;;6.78;2.17;;;19.60;99.90;;;;;;5072371;28;20531;-63
2023/07/15 02:28:09;;;;;;;7.18;2.10;;;19.60;99.90;;;;;;5071798;28;20040;-63
2023/07/15 02:30:37;;;;;;;8.20;2.63;;;19.80;99.90;;;;;;5072589;28;20036;-65
2023/07/15 02:33:06;;;;;;;6.28;2.60;;;19.60;99.90;;;;;;5071352;28;20092;-63
2023/07/15 02:35:33;;;;;;;4.30;2.17;;;19.40;99.90;;;;;;5071884;28;20055;-63
2023/07/15 02:37:59;;;;;;;5.97;2.20;;;19.70;99.90;;;;;;5053453;28;20068;-63
2023/07/15 02:40:25;;;;;;;5.90;2.05;;;19.40;99.90;;;;;;5054814;28;20124;-63
2023/07/15 02:42:52;;;;;;;8.27;2.45;;;19.60;99.90;;;;;;5055414;28;20046;-64
2023/07/15 02:45:18;;;;;;;6.82;2.28;;;19.70;99.90;;;;;;5071988;28;20044;-64
2023/07/15 02:47:44;;;;;;;6.18;2.42;;;19.40;99.90;;;;;;5071911;28;20466;-63
2023/07/15 02:50:10;;;;;;;6.85;2.88;;;19.40;99.90;;;;;;5054192;28;20177;-64
2023/07/15 02:52:38;;;;;;;4.75;2.50;;;19.40;99.90;;;;;;5072678;28;20067;-63
2023/07/15 02:55:09;;;;;;;6.97;2.17;;;19.50;99.90;;;;;;5071875;28;20213;-64
2023/07/15 02:57:35;;;;;;;9.10;2.63;;;19.40;99.90;;;;;;5072049;28;20038;-64
2023/07/15 03:00:07;;;;;;;6.22;2.30;;;19.30;99.90;;;;;;5071924;28;20850;-64
2023/07/15 03:02:33;;;;;;;6.45;2.38;;;19.20;99.90;;;;;;5070643;28;20043;-64
2023/07/15 03:04:59;;;;;;;5.40;2.13;;;19.20;99.90;;;;;;5071263;28;20386;-63
2023/07/15 03:07:24;;;;;;;4.60;2.22;;;19.10;99.90;;;;;;5073220;28;20127;-65
2023/07/15 03:09:50;;;;;;;7.53;2.15;;;19.30;99.90;;;;;;5072411;28;20036;-64
2023/07/15 03:12:17;;;;;;;6.70;2.30;;;19.10;99.90;;;;;;5074096;28;20044;-65
2023/07/15 03:14:42;;;;;;;5.53;2.58;;;19.30;99.90;;;;;;5072717;28;20143;-64
2023/07/15 03:17:09;;;;;;;5.25;2.20;;;19.20;99.90;;;;;;5073396;28;20898;-64
2023/07/15 03:19:37;;;;;;;5.45;2.10;;;19.40;99.90;;;;;;5072532;28;20131;-64
2023/07/15 03:22:03;;;;;;;6.03;2.00;;;19.30;99.90;;;;;;5071387;28;20445;-64
2023/07/15 03:24:30;;;;;;;6.00;2.10;;;19.20;99.90;;;;;;5072226;28;20060;-65
2023/07/15 03:26:56;;;;;;;7.78;2.58;;;19.20;99.90;;;;;;5072402;28;20419;-63
2023/07/15 03:29:25;;;;;;;7.70;2.38;;;19.20;99.90;;;;;;5073543;28;20085;-64
2023/07/15 03:31:51;;;;;;;6.53;2.28;;;19.70;99.90;;;;;;5053165;28;20390;-64
2023/07/15 03:34:17;;;;;;;7.18;2.47;;;19.00;99.90;;;;;;5053155;28;20044;-64
2023/07/15 03:36:43;;;;;;;7.72;2.30;;;19.20;99.90;;;;;;5071254;28;20068;-64
2023/07/15 03:39:08;;;;;;;8.98;2.10;;;19.10;99.90;;;;;;5053439;28;20042;-65
2023/07/15 03:41:35;;;;;;;6.50;2.20;;;19.00;99.90;;;;;;5036852;28;20315;-65
2023/07/15 03:44:02;;;;;;;6.38;2.30;;;19.20;99.90;;;;;;5054872;28;20580;-64
2023/07/15 03:46:27;;;;;;;10.32;3.55;;;19.10;99.90;;;;;;5071583;28;20536;-64
2023/07/15 03:48:53;;;;;;;6.93;2.38;;;18.70;99.90;;;;;;5071120;28;20147;-64
2023/07/15 03:51:19;;;;;;;6.72;2.28;;;19.00;99.90;;;;;;5070640;28;20239;-64
2023/07/15 03:53:44;;;;;;;9.10;2.65;;;18.90;99.90;;;;;;5071135;28;20047;-64
2023/07/15 03:56:10;;;;;;;8.93;2.10;;;18.90;99.90;;;;;;5071705;28;20056;-64
2023/07/15 03:58:36;;;;;;;5.90;2.15;;;17.60;99.90;;;;;;5053426;28;20605;-64
2023/07/15 04:01:01;;;;;;;8.88;2.50;;;18.70;99.90;;;;;;5070146;28;21600;-63
2023/07/15 04:03:28;;;;;;;5.55;2.22;;;18.80;99.90;;;;;;5071797;28;20024;-66
2023/07/15 04:05:54;;;;;;;6.88;2.70;;;18.90;99.90;;;;;;5071068;28;20040;-64
2023/07/15 04:08:20;;;;;;;8.70;2.40;;;18.70;99.90;;;;;;5071489;28;20263;-64
2023/07/15 04:10:49;;;;;;;7.35;2.40;;;18.50;99.90;;;;;;5071901;28;20128;-64
2023/07/15 04:13:14;;;;;;;7.35;2.17;;;18.50;99.90;;;;;;5057651;28;20046;-64
2023/07/15 04:15:40;;;;;;;10.05;2.67;;;18.60;99.90;;;;;;5075218;28;20040;-64
2023/07/15 04:18:06;;;;;;;5.60;2.30;;;18.70;99.90;;;;;;5074500;28;20377;-65
2023/07/15 04:20:32;;;;;;;8.00;3.15;;;18.60;99.90;;;;;;5075678;28;21189;-65
2023/07/15 04:22:58;;;;;;;6.05;2.40;;;18.60;99.90;;;;;;5075180;28;20048;-64
2023/07/15 04:25:24;;;;;;;8.00;2.50;;;18.60;99.90;;;;;;5073998;28;20048;-64
2023/07/15 04:27:50;;;;;;;6.25;2.35;;;18.60;99.90;;;;;;5075512;28;20064;-64
2023/07/15 04:30:16;;;;;;;5.38;2.40;;;18.50;99.90;;;;;;5075331;28;20055;-64
2023/07/15 04:32:42;;;;;;;4.82;2.15;;;18.70;99.90;;;;;;5057380;28;20424;-64
2023/07/15 04:35:08;;;;;;;5.35;2.60;;;18.60;99.90;;;;;;5055490;28;20480;-64
2023/07/15 04:37:34;;;;;;;6.65;2.80;;;18.70;99.90;;;;;;5074942;28;20123;-64
2023/07/15 04:40:03;;;;;;;5.80;2.47;;;18.60;99.90;;;;;;5075461;28;20047;-65
2023/07/15 04:42:29;;;;;;;6.47;2.78;;;18.80;99.90;;;;;;5076607;28;20390;-64
2023/07/15 04:44:54;;;;;;;8.60;2.53;;;18.80;99.90;;;;;;5076004;28;20086;-64
2023/07/15 04:47:20;;;;;;;6.07;2.17;;;18.80;99.90;;;;;;5073947;28;20032;-64
2023/07/15 04:49:46;;;;;;;12.45;2.58;;;18.90;99.90;;;;;;5075171;28;20295;-64
2023/07/15 04:52:11;;;;;;;5.32;2.15;;;18.80;99.90;;;;;;5074001;28;20067;-64
2023/07/15 04:54:37;;;;;;;6.97;2.30;;;19.10;99.90;;;;;;5074557;28;20504;-64
2023/07/15 04:57:03;;;;;;;6.78;2.58;;;19.10;99.90;;;;;;5074097;28;20035;-64
2023/07/15 04:59:29;;;;;;;8.20;2.50;;;19.20;99.90;;;;;;5074967;28;20044;-65
2023/07/15 05:01:54;;;;;;;7.60;2.40;;;17.10;99.90;;;;;;5056243;28;20058;-64
2023/07/15 05:04:20;;;;;;;6.88;2.45;;;19.10;99.90;;;;;;5073584;28;20040;-66
2023/07/15 05:06:46;;;;;;;8.30;3.20;;;19.10;99.90;;;;;;5074189;28;20506;-64
2023/07/15 05:09:12;;;;;;;6.63;2.60;;;19.00;99.90;;;;;;5075061;28;20859;-65
2023/07/15 05:11:37;;;;;;;7.15;2.53;;;19.20;99.90;;;;;;5074633;28;20083;-64
2023/07/15 05:14:04;;;;;;;7.10;2.72;;;19.40;99.90;;;;;;5075394;28;20028;-64
2023/07/15 05:16:29;;;;;;;8.85;2.90;;;19.50;99.90;;;;;;5074394;28;20047;-65
2023/07/15 05:18:55;;;;;;;6.80;2.75;;;19.40;99.90;;;;;;5074627;28;20025;-64
2023/07/15 05:21:21;;;;;;;7.20;2.60;;;19.40;99.90;;;;;;5073762;28;20512;-64
2023/07/15 05:23:47;;;;;;;6.85;2.88;;;19.40;99.90;;;;;;5071932;28;20135;-64
2023/07/15 05:26:13;;;;;;;8.38;3.42;;;19.60;99.90;;;;;;5073223;28;20698;-63
2023/07/15 05:28:39;;;;;;;5.18;2.78;;;19.60;99.90;;;;;;5074928;28;20051;-64
2023/07/15 05:31:04;;;;;;;5.72;2.75;;;19.50;99.90;;;;;;5073295;28;20036;-64
2023/07/15 05:33:30;;;;;;;5.70;2.60;;;19.80;99.90;;;;;;5054678;28;20043;-63
2023/07/15 05:35:56;;;;;;;7.80;2.65;;;22.10;99.90;;;;;;5073267;28;20181;-64
2023/07/15 05:38:24;;;;;;;6.10;2.50;;;20.00;99.90;;;;;;5073594;28;20044;-65
2023/07/15 05:40:53;;;;;;;8.20;3.22;;;20.00;99.90;;;;;;5056205;28;20127;-64
2023/07/15 05:43:19;;;;;;;6.80;2.83;;;20.00;99.90;;;;;;5074392;28;20389;-65
2023/07/15 05:45:48;;;;;;;7.43;2.88;;;20.10;99.90;;;;;;5073705;28;20043;-65
2023/07/15 05:48:14;;;;;;;6.05;2.63;;;20.20;99.90;;;;;;5072255;28;20032;-64
2023/07/15 05:50:40;;;;;;;8.02;2.90;;;20.30;99.90;;;;;;5073847;28;20039;-64
2023/07/15 05:53:10;;;;;;;7.63;2.58;;;20.30;99.90;;;;;;5072411;28;20468;-64
2023/07/15 05:55:36;;;;;;;8.70;2.40;;;20.20;99.90;;;;;;5055293;28;20032;-64
2023/07/15 05:58:09;;;;;;;9.63;3.00;;;20.50;99.90;;;;;;5072581;28;20047;-64
2023/07/15 06:00:36;;;;;;;6.40;2.88;;;20.30;99.90;;;;;;5072502;28;20040;-64
2023/07/15 06:03:02;;;;;;;8.02;2.67;;;20.60;99.90;;;;;;5071807;28;20489;-64
2023/07/15 06:05:30;;;;;;;5.43;2.40;;;20.80;99.90;;;;;;5074385;28;20076;-64
2023/07/15 06:07:55;;;;;;;5.85;2.60;;;20.80;99.90;;;;;;5074009;28;20567;-64
2023/07/15 06:10:21;;;;;;;5.78;2.47;;;20.90;99.90;;;;;;5073366;28;20054;-64
2023/07/15 06:12:47;;;;;;;6.80;3.10;;;20.80;99.90;;;;;;5073746;28;20090;-64
2023/07/15 06:15:13;;;;;;;6.40;2.90;;;20.80;99.90;;;;;;5075433;28;20039;-64
2023/07/15 06:17:38;;;;;;;8.13;2.97;;;21.00;99.90;;;;;;5073402;28;20071;-64
2023/07/15 06:20:05;;;;;;;7.00;2.28;;;21.00;99.90;;;;;;5072480;28;20040;-64
2023/07/15 06:22:31;;;;;;;6.40;2.50;;;21.20;99.90;;;;;;5072329;28;20052;-64
2023/07/15 06:24:56;;;;;;;7.38;2.40;;;21.40;99.90;;;;;;5073831;28;20343;-64
2023/07/15 06:27:23;;;;;;;4.95;2.30;;;21.80;99.90;;;;;;5072526;28;20032;-64
2023/07/15 06:29:49;;;;;;;7.30;2.28;;;21.70;99.90;;;;;;5054329;28;20079;-63
2023/07/15 06:32:15;;;;;;;5.82;2.70;;;22.10;99.90;;;;;;5072720;28;20169;-64
2023/07/15 06:34:40;;;;;;;7.75;2.50;;;22.40;99.90;;;;;;5071667;28;20043;-64
2023/07/15 06:37:06;;;;;;;6.07;2.63;;;22.60;99.90;;;;;;5072398;28;20059;-64
2023/07/15 06:39:32;;;;;;;6.25;2.72;;;23.10;99.90;;;;;;5073280;28;20633;-65
2023/07/15 06:41:58;;;;;;;8.13;2.38;;;23.00;99.90;;;;;;5053601;28;20032;-64
2023/07/15 06:44:26;;;;;;;7.60;2.55;;;23.10;99.90;;;;;;5073256;28;20127;-64
2023/07/15 06:46:52;;;;;;;5.72;2.10;;;22.90;99.90;;;;;;5072374;28;20040;-64
2023/07/15 06:49:18;;;;;;;6.35;3.05;;;22.90;99.90;;;;;;5072150;28;20048;-65
2023/07/15 06:51:44;;;;;;;6.18;2.58;;;22.80;99.90;;;;;;5053603;28;20052;-64
2023/07/15 06:54:09;;;;;;;5.97;2.25;;;23.00;99.90;;;;;;5070948;28;20048;-64
2023/07/15 06:56:35;;;;;;;10.95;2.80;;;23.10;99.90;;;;;;5072811;28;20436;-65
2023/07/15 06:59:02;;;;;;;6.60;2.70;;;23.10;99.90;;;;;;5072772;28;20068;-65
2023/07/15 07:01:28;;;;;;;7.68;2.60;;;23.20;99.90;;;;;;5071260;28;20254;-66
2023/07/15 07:03:54;;;;;;;4.53;2.15;;;23.00;99.90;;;;;;5071124;28;20408;-64
2023/07/15 07:06:20;;;;;;;6.68;2.33;;;23.30;99.90;;;;;;5072175;28;20519;-65
2023/07/15 07:08:45;;;;;;;5.65;2.28;;;23.40;99.90;;;;;;5071255;28;20133;-64
2023/07/15 07:11:11;;;;;;;9.27;2.50;;;23.70;99.90;;;;;;5071140;28;20739;-65
2023/07/15 07:13:37;;;;;;;7.30;2.83;;;23.80;99.90;;;;;;5072263;28;20488;-65
2023/07/15 07:16:03;;;;;;;7.05;2.47;;;23.50;99.90;;;;;;5072557;28;20139;-64
2023/07/15 07:18:28;;;;;;;5.18;2.20;;;23.20;99.90;;;;;;5070604;28;20051;-64
2023/07/15 07:21:01;;;;;;;5.82;2.05;;;22.90;99.90;;;;;;5071032;28;20028;-64
2023/07/15 07:23:27;;;;;;;5.82;2.20;;;22.70;99.90;;;;;;5069631;28;20135;-64
2023/07/15 07:25:53;;;;;;;5.13;1.90;;;22.70;99.90;;;;;;5052399;28;20052;-63
2023/07/15 07:28:23;;;;;;;5.95;2.30;;;23.00;99.90;;;;;;5071035;28;20042;-65
2023/07/15 07:30:50;;;;;;;6.78;2.15;;;23.80;99.90;;;;;;5072572;28;20031;-65
2023/07/15 07:33:16;;;;;;;5.75;2.42;;;24.60;99.90;;;;;;5070967;28;20364;-66
2023/07/15 07:35:46;;;;;;;7.68;2.60;;;25.50;99.90;;;;;;5071409;28;20424;-65
2023/07/15 07:38:12;;;;;;;5.82;2.28;;;26.20;99.90;;;;;;5069883;28;20044;-65
2023/07/15 07:40:38;;;;;;;5.13;2.08;;;26.60;99.90;;;;;;5072144;28;20476;-64
2023/07/15 07:43:05;;;;;;;6.88;1.92;;;27.20;99.90;;;;;;5070799;28;20078;-68
2023/07/15 07:45:30;;;;;;;5.57;1.73;;;27.80;99.90;;;;;;5054623;28;20529;-68
2023/07/15 07:47:56;;;;;;;4.93;2.00;;;27.80;99.90;;;;;;5054284;28;20044;-68
2023/07/15 07:50:22;;;;;;;5.80;2.00;;;27.70;99.90;;;;;;5075439;28;20063;-66
2023/07/15 07:52:48;;;;;;;5.43;2.97;;;27.30;99.90;;;;;;5076264;28;20384;-67
2023/07/15 07:55:13;;;;;;;7.57;3.00;;;26.70;99.90;;;;;;5075782;28;20070;-67
2023/07/15 07:57:39;;;;;;;4.13;1.67;;;26.70;99.90;;;;;;5074847;28;20105;-67
2023/07/15 08:00:05;;;;;;;6.15;2.10;;;27.20;99.90;;;;;;5057850;28;20126;-67
2023/07/15 08:02:31;;;;;;;5.63;1.90;;;27.50;99.90;;;;;;5056805;28;20044;-68
2023/07/15 08:04:57;;;;;;;6.95;1.83;;;27.60;99.90;;;;;;5074953;28;20550;-67
2023/07/15 08:07:23;;;;;;;8.98;1.88;;;28.00;99.90;;;;;;5074094;28;20044;-67
2023/07/15 08:09:49;;;;;;;3.80;1.38;;;27.80;99.90;;;;;;5075753;28;20893;-67
2023/07/15 08:12:17;;;;;;;5.43;1.60;;;28.20;99.90;;;;;;5055752;28;20044;-68
2023/07/15 08:14:43;;;;;;;3.83;1.40;;;28.20;99.90;;;;;;5057713;28;20040;-68
2023/07/15 08:17:09;;;;;;;3.58;1.40;;;28.70;99.90;;;;;;5074755;28;20122;-68
2023/07/15 08:19:35;;;;;;;4.00;1.52;;;28.70;99.90;;;;;;5074919;28;20065;-68
2023/07/15 08:22:00;;;;;;;6.55;1.67;;;28.30;99.90;;;;;;5073801;28;20247;-67
2023/07/15 08:24:26;;;;;;;3.95;1.58;;;27.30;99.90;;;;;;5073770;28;20143;-67
2023/07/15 08:26:52;;;;;;;9.98;1.95;;;26.90;99.90;;;;;;5075045;28;20036;-68
2023/07/15 08:29:18;;;;;;;3.55;1.50;;;26.20;99.90;;;;;;5074253;28;20043;-68
2023/07/15 08:31:44;;;;;;;5.15;1.58;;;25.60;99.90;;;;;;5074258;28;20039;-64
2023/07/15 08:34:10;;;;;;;4.28;1.23;;;25.60;99.90;;;;;;5074584;28;20040;-66
2023/07/15 08:36:36;;;;;;;6.57;1.42;;;25.80;99.90;;;;;;5076056;28;20050;-65
2023/07/15 08:39:02;;;;;;;3.85;1.33;;;26.60;99.90;;;;;;5074514;28;20119;-65
2023/07/15 08:41:28;;;;;;;5.72;1.27;;;26.60;99.90;;;;;;5074635;28;20869;-64
2023/07/15 08:43:54;;;;;;;4.95;1.38;;;26.50;99.90;;;;;;5075163;28;20074;-64
2023/07/15 08:46:28;;;;;;;4.03;1.27;;;25.80;99.90;;;;;;5075567;28;20516;-65
2023/07/15 08:48:56;;;;;;;2.97;1.20;;;25.40;99.90;;;;;;5074394;28;20032;-65
2023/07/15 08:51:24;;;;;;;5.85;1.20;;;25.30;99.90;;;;;;5073553;28;20044;-65
2023/07/15 08:53:51;;;;;;;4.03;1.20;;;25.20;99.90;;;;;;5074190;28;20468;-64
2023/07/15 08:56:17;;;;;;;3.33;1.23;;;24.90;99.90;;;;;;5072444;28;20052;-64
2023/07/15 08:58:44;;;;;;;2.63;1.10;;;24.80;99.90;;;;;;5074504;28;20043;-64
2023/07/15 09:01:09;;;;;;;2.85;1.10;;;24.80;99.90;;;;;;5074350;28;20043;-64
2023/07/15 09:03:35;;;;;;;5.80;1.08;;;25.00;99.90;;;;;;5074240;28;20548;-64
2023/07/15 09:06:02;;;;;;;2.92;1.30;;;25.10;99.90;;;;;;5074857;28;20040;-65
2023/07/15 09:08:27;;;;;;;2.13;1.00;;;25.70;99.90;;;;;;5074898;28;20171;-67
2023/07/15 09:10:58;;;;;;;4.65;1.05;;;26.30;99.90;;;;;;5073950;28;20036;-65
2023/07/15 09:13:24;;;;;;;3.20;0.90;;;26.40;99.90;;;;;;5073879;28;20593;-66
2023/07/15 09:15:51;;;;;;;3.15;1.10;;;26.30;99.90;;;;;;5077292;28;20082;-66
2023/07/15 09:18:18;;;;;;;2.72;1.08;;;26.20;99.90;;;;;;5074463;28;20048;-65
2023/07/15 09:20:43;;;;;;;4.82;1.10;;;25.80;99.90;;;;;;5073834;28;20038;-64
2023/07/15 09:23:09;;;;;;;3.97;1.55;;;25.30;99.90;;;;;;5073101;28;20044;-64
2023/07/15 09:25:36;;;;;;;3.83;1.33;;;25.20;99.90;;;;;;5052758;28;20043;-64
2023/07/15 09:28:02;;;;;;;7.38;1.77;;;24.70;99.90;;;;;;5073685;28;20051;-64
2023/07/15 09:30:28;;;;;;;4.28;1.20;;;24.50;99.90;;;;;;5072198;28;20040;-63
2023/07/15 09:32:53;;;;;;;3.25;1.00;;;24.30;99.90;;;;;;5053951;28;20399;-64
2023/07/15 09:35:20;;;;;;;4.70;1.25;;;24.00;99.90;;;;;;5072938;28;20044;-64
2023/07/15 09:37:48;;;;;;;4.15;1.10;;;23.70;99.90;;;;;;5071806;28;20153;-63
2023/07/15 09:40:14;;;;;;;3.22;1.20;;;23.50;99.90;;;;;;5070385;28;20541;-64
2023/07/15 09:42:50;;;;;;;5.22;1.35;;;23.70;99.90;;;;;;5054402;28;20028;-63
2023/07/15 09:45:39;;;;;;;7.15;1.30;;;23.70;99.90;;;;;;5073183;28;20040;-64
2023/07/15 09:48:07;;;;;;;2.72;1.00;;;23.80;99.90;;;;;;5072508;28;20481;-63
2023/07/15 09:50:34;;;;;;;6.13;1.70;;;23.90;99.90;;;;;;5071922;28;20442;-64
2023/07/15 09:53:01;;;;;;;5.90;1.25;;;23.90;99.90;;;;;;5072894;28;20047;-65
2023/07/15 09:55:28;;;;;;;2.45;1.08;;;23.70;99.90;;;;;;5056573;28;20036;-65
2023/07/15 09:58:04;;;;;;;4.40;1.40;;;24.20;99.90;;;;;;5072511;28;20094;-64
2023/07/15 10:00:35;;;;;;;6.35;1.63;;;24.50;99.90;;;;;;5074114;28;20040;-64
2023/07/15 10:03:02;;;;;;;4.17;1.20;;;22.60;99.90;;;;;;5071718;28;20301;-65
2023/07/15 10:05:29;;;;;;;11.10;2.10;;;25.20;99.90;;;;;;5071211;28;20043;-64
2023/07/15 10:07:55;;;;;;;3.50;1.58;;;25.10;99.90;;;;;;5053460;28;20501;-64
2023/07/15 10:10:21;;;;;;;3.08;1.30;;;25.00;99.90;;;;;;5054133;28;20036;-66
2023/07/15 10:12:49;;;;;;;5.88;1.27;;;25.30;99.90;;;;;;5072007;28;20121;-65
2023/07/15 10:15:16;;;;;;;4.47;1.35;;;25.50;99.90;;;;;;5075549;28;20409;-65
2023/07/15 10:17:45;;;;;;;3.83;1.20;;;25.90;99.90;;;;;;5055791;28;20294;-65
2023/07/15 10:20:11;;;;;;;2.72;1.30;;;26.20;99.90;;;;;;5072524;28;20154;-65
2023/07/15 10:22:39;;;;;;;5.03;1.50;;;26.10;99.90;;;;;;5054931;28;20047;-65
2023/07/15 10:25:10;;;;;;;4.20;1.35;;;26.20;99.90;;;;;;5072814;28;20778;-64
2023/07/15 10:27:36;;;;;;;4.10;1.75;;;26.30;99.90;;;;;;5055608;28;20983;-66
2023/07/15 10:30:14;;;;;;;5.50;1.48;;;25.90;99.90;;;;;;5072286;28;20048;-65
2023/07/15 10:32:59;;;;;;;4.40;1.42;;;26.10;99.90;;;;;;5071923;28;20044;-65
2023/07/15 10:35:30;;;;;;;3.53;1.38;;;25.60;99.90;;;;;;5071355;28;20692;-67
2023/07/15 10:38:21;;;;;;;4.78;1.70;;;25.30;99.90;;;;;;5070872;28;20040;-67
2023/07/15 10:40:47;;;;;;;4.63;1.95;;;25.00;99.90;;;;;;5052216;28;20051;-67
2023/07/15 10:43:20;;;;;;;2.40;1.35;;;25.20;99.90;;;;;;5071529;28;20044;-66
2023/07/15 10:45:54;;;;;;;5.35;1.50;;;25.30;99.90;;;;;;5074105;28;20422;-66
2023/07/15 10:48:21;;;;;;;3.10;1.30;;;25.60;99.90;;;;;;5070661;28;20409;-68
2023/07/15 10:50:51;;;;;;;4.18;1.45;;;25.90;99.90;;;;;;5052950;28;20771;-66
2023/07/15 10:53:22;;;;;;;5.07;2.03;;;26.20;99.90;;;;;;5070732;28;20048;-67
2023/07/15 10:55:59;;;;;;;3.30;1.60;;;25.60;99.90;;;;;;5054040;28;20044;-67
2023/07/15 10:58:26;;;;;;;4.53;2.00;;;25.40;99.90;;;;;;5071258;28;20044;-67
2023/07/15 11:01:01;;;;;;;8.85;1.90;;;25.30;99.90;;;;;;5071502;28;20055;-67
2023/07/15 11:03:31;;;;;;;4.97;1.90;;;25.20;99.90;;;;;;5071864;28;20044;-67
2023/07/15 11:05:58;;;;;;;4.25;1.80;;;25.30;99.90;;;;;;5072581;28;20055;-66
2023/07/15 11:08:24;;;;;;;4.20;1.88;;;25.50;99.90;;;;;;5071749;28;20048;-67
2023/07/15 11:10:56;;;;;;;7.40;1.90;;;25.50;99.90;;;;;;5071471;28;20749;-67
2023/07/15 11:13:22;;;;;;;4.95;1.90;;;25.70;99.90;;;;;;5071327;28;20036;-67
2023/07/15 11:15:48;;;;;;;3.97;2.05;;;25.80;99.90;;;;;;5072786;28;20032;-66
2023/07/15 11:18:22;;;;;;;3.63;1.73;;;25.80;99.90;;;;;;5072685;28;20067;-66
2023/07/15 11:20:51;;;;;;;6.53;2.20;;;25.90;99.90;;;;;;5071767;28;20637;-66
2023/07/15 11:23:18;;;;;;;5.45;2.10;;;25.70;99.90;;;;;;5071790;28;20056;-66
2023/07/15 11:25:45;;;;;;;4.18;2.00;;;25.40;99.90;;;;;;5072735;28;20086;-66
2023/07/15 11:28:11;;;;;;;4.65;2.08;;;25.60;99.90;;;;;;5071108;28;20196;-66
2023/07/15 11:30:43;;;;;;;7.68;2.17;;;25.40;99.90;;;;;;5071232;28;20047;-67
2023/07/15 11:33:10;;;;;;;9.35;2.00;;;25.80;99.90;;;;;;5070704;28;20048;-65
2023/07/15 11:35:38;;;;;;;5.47;2.03;;;26.10;99.90;;;;;;5072119;28;20444;-65
2023/07/15 11:38:10;;;;;;;3.95;2.10;;;26.20;99.90;;;;;;5072276;28;20526;-65
2023/07/15 11:40:56;;;;;;;4.88;2.00;;;26.10;99.90;;;;;;5071894;28;20057;-65
2023/07/15 11:43:26;;;;;;;7.88;1.75;;;25.80;99.90;;;;;;5071331;28;20143;-65
2023/07/15 11:46:00;;;;;;;2.80;1.40;;;25.90;99.90;;;;;;5073925;28;20297;-65
2023/07/15 11:48:34;;;;;;;4.68;1.70;;;25.60;99.90;;;;;;5071823;28;20051;-66
2023/07/15 11:51:07;;;;;;;3.70;1.60;;;25.60;99.90;;;;;;5072635;28;20040;-64
2023/07/15 11:53:36;;;;;;;3.65;1.83;;;25.70;99.90;;;;;;5073078;28;20056;-65
2023/07/15 11:56:03;;;;;;;4.40;1.70;;;25.50;99.90;;;;;;5072603;28;20127;-65
2023/07/15 11:58:49;;;;;;;4.18;1.60;;;25.30;99.90;;;;;;5072245;28;20039;-65
2023/07/15 12:01:17;;;;;;;3.45;1.90;;;25.20;99.90;;;;;;5072160;28;20044;-65
2023/07/15 12:03:48;;;;;;;3.92;1.60;;;25.20;99.90;;;;;;5072733;28;20082;-65
2023/07/15 12:06:23;;;;;;;4.47;1.75;;;25.20;99.90;;;;;;5072077;28;20044;-65
2023/07/15 12:09:05;;;;;;;4.65;1.60;;;25.10;99.90;;;;;;5071286;28;20407;-66
2023/07/15 12:11:32;;;;;;;4.35;1.70;;;24.70;99.90;;;;;;5071784;28;20397;-66
2023/07/15 12:13:59;;;;;;;4.40;1.65;;;24.80;99.90;;;;;;5071466;28;20040;-65
2023/07/15 12:16:25;;;;;;;3.20;1.63;;;24.40;99.90;;;;;;5072778;28;20126;-65
2023/07/15 12:18:52;;;;;;;6.28;1.90;;;24.30;99.90;;;;;;5071908;28;20051;-65
2023/07/15 12:21:18;;;;;;;5.60;1.83;;;24.60;99.90;;;;;;5072380;28;20250;-65
2023/07/15 12:23:44;;;;;;;4.30;1.60;;;24.20;99.90;;;;;;5052472;28;20071;-64
2023/07/15 12:26:10;;;;;;;3.42;1.50;;;24.30;99.90;;;;;;5071037;28;20487;-65
2023/07/15 12:28:36;;;;;;;4.10;1.45;;;24.30;99.90;;;;;;5070987;28;20798;-64
2023/07/15 12:31:02;;;;;;;3.60;1.73;;;24.10;99.90;;;;;;5053512;28;20040;-65
2023/07/15 12:33:27;;;;;;;6.88;1.52;;;24.00;99.90;;;;;;5071049;28;20036;-65
2023/07/15 12:35:53;;;;;;;5.75;1.73;;;24.40;99.90;;;;;;5075297;28;20511;-64
2023/07/15 12:38:19;;;;;;;2.63;1.50;;;24.90;99.90;;;;;;5074010;28;20465;-65
2023/07/15 12:40:45;;;;;;;4.75;1.90;;;24.70;99.90;;;;;;5075867;28;20044;-64
2023/07/15 12:43:10;;;;;;;5.93;1.65;;;24.70;99.90;;;;;;5074695;28;20067;-64
2023/07/15 12:45:36;;;;;;;5.70;1.70;;;24.90;99.90;;;;;;5075236;28;20484;-65